sensor_id;sensor_type;location;lat;lon;timestamp;P1;durP1;ratioP1;P2;durP2;ratioP2
21671;SDS011;10997;52.242;8.168;2023-02-24T00:01:58;30.20;;;5.90;;
21671;SDS011;10997;52.242;8.168;2023-02-24T00:07:01;36.72;;;6.30;;
21671;SDS011;10997;52.242;8.168;2023-02-24T00:12:05;39.40;;;6.00;;
21671;SDS011;10997;52.242;8.168;2023-02-24T00:17:16;39.15;;;6.43;;
21671;SDS011;10997;52.242;8.168;2023-02-24T00:22:16;44.75;;;5.68;;
21671;SDS011;10997;52.242;8.168;2023-02-24T00:27:17;32.10;;;5.20;;
21671;SDS011;10997;52.242;8.168;2023-02-24T00:32:18;35.78;;;5.68;;
21671;SDS011;10997;52.242;8.168;2023-02-24T00:37:18;36.50;;;5.68;;
21671;SDS011;10997;52.242;8.168;2023-02-24T00:42:23;40.45;;;6.07;;
21671;SDS011;10997;52.242;8.168;2023-02-24T00:47:23;36.42;;;6.32;;
21671;SDS011;10997;52.242;8.168;2023-02-24T00:52:24;38.80;;;5.90;;
21671;SDS011;10997;52.242;8.168;2023-02-24T00:57:26;30.98;;;5.57;;
21671;SDS011;10997;52.242;8.168;2023-02-24T01:02:27;37.90;;;5.95;;
21671;SDS011;10997;52.242;8.168;2023-02-24T01:07:27;26.77;;;5.35;;
21671;SDS011;10997;52.242;8.168;2023-02-24T01:12:28;33.08;;;5.03;;
21671;SDS011;10997;52.242;8.168;2023-02-24T01:17:37;33.78;;;4.72;;
21671;SDS011;10997;52.242;8.168;2023-02-24T01:22:38;27.95;;;5.88;;
21671;SDS011;10997;52.242;8.168;2023-02-24T01:27:38;27.23;;;4.80;;
21671;SDS011;10997;52.242;8.168;2023-02-24T01:32:39;28.80;;;5.47;;
21671;SDS011;10997;52.242;8.168;2023-02-24T01:37:43;26.98;;;4.63;;
21671;SDS011;10997;52.242;8.168;2023-02-24T01:42:44;27.90;;;4.53;;
21671;SDS011;10997;52.242;8.168;2023-02-24T01:47:46;23.58;;;4.65;;
21671;SDS011;10997;52.242;8.168;2023-02-24T01:52:48;28.05;;;4.30;;
21671;SDS011;10997;52.242;8.168;2023-02-24T01:57:55;25.38;;;4.57;;
21671;SDS011;10997;52.242;8.168;2023-02-24T02:02:58;23.77;;;4.38;;
21671;SDS011;10997;52.242;8.168;2023-02-24T02:08:03;19.83;;;3.65;;
21671;SDS011;10997;52.242;8.168;2023-02-24T02:13:04;20.63;;;3.42;;
21671;SDS011;10997;52.242;8.168;2023-02-24T02:18:28;17.85;;;3.45;;
21671;SDS011;10997;52.242;8.168;2023-02-24T03:00:56;14.77;;;2.58;;
21671;SDS011;10997;52.242;8.168;2023-02-24T03:06:05;17.38;;;2.80;;
21671;SDS011;10997;52.242;8.168;2023-02-24T03:11:24;20.70;;;3.33;;
21671;SDS011;10997;52.242;8.168;2023-02-24T03:16:25;13.02;;;2.70;;
21671;SDS011;10997;52.242;8.168;2023-02-24T03:21:28;13.60;;;2.85;;
21671;SDS011;10997;52.242;8.168;2023-02-24T03:27:42;18.00;;;3.55;;
21671;SDS011;10997;52.242;8.168;2023-02-24T03:38:23;11.98;;;2.45;;
21671;SDS011;10997;52.242;8.168;2023-02-24T03:43:31;16.10;;;2.55;;
21671;SDS011;10997;52.242;8.168;2023-02-24T03:48:49;18.88;;;2.88;;
21671;SDS011;10997;52.242;8.168;2023-02-24T03:59:26;18.73;;;3.28;;
21671;SDS011;10997;52.242;8.168;2023-02-24T04:04:49;20.55;;;3.20;;
21671;SDS011;10997;52.242;8.168;2023-02-24T04:20:21;17.88;;;2.90;;
21671;SDS011;10997;52.242;8.168;2023-02-24T04:25:24;15.50;;;3.25;;
21671;SDS011;10997;52.242;8.168;2023-02-24T04:30:28;19.63;;;2.53;;
21671;SDS011;10997;52.242;8.168;2023-02-24T04:35:32;12.27;;;2.40;;
21671;SDS011;10997;52.242;8.168;2023-02-24T04:40:33;15.80;;;2.65;;
21671;SDS011;10997;52.242;8.168;2023-02-24T04:45:33;13.13;;;2.72;;
21671;SDS011;10997;52.242;8.168;2023-02-24T04:50:35;15.43;;;2.40;;
21671;SDS011;10997;52.242;8.168;2023-02-24T04:55:37;13.95;;;2.72;;
21671;SDS011;10997;52.242;8.168;2023-02-24T05:00:39;13.23;;;2.67;;
21671;SDS011;10997;52.242;8.168;2023-02-24T05:05:46;18.30;;;3.03;;
21671;SDS011;10997;52.242;8.168;2023-02-24T05:10:51;12.65;;;2.70;;
21671;SDS011;10997;52.242;8.168;2023-02-24T05:15:53;15.50;;;2.97;;
21671;SDS011;10997;52.242;8.168;2023-02-24T05:20:55;14.95;;;2.38;;
21671;SDS011;10997;52.242;8.168;2023-02-24T05:26:17;15.38;;;2.85;;
21671;SDS011;10997;52.242;8.168;2023-02-24T05:31:20;16.60;;;2.90;;
21671;SDS011;10997;52.242;8.168;2023-02-24T05:36:25;14.20;;;2.70;;
21671;SDS011;10997;52.242;8.168;2023-02-24T05:41:27;14.88;;;2.60;;
21671;SDS011;10997;52.242;8.168;2023-02-24T05:46:36;10.98;;;2.50;;
21671;SDS011;10997;52.242;8.168;2023-02-24T05:51:39;12.48;;;2.72;;
21671;SDS011;10997;52.242;8.168;2023-02-24T05:56:53;13.90;;;2.40;;
21671;SDS011;10997;52.242;8.168;2023-02-24T06:01:58;14.32;;;3.35;;
21671;SDS011;10997;52.242;8.168;2023-02-24T06:07:00;14.20;;;2.30;;
21671;SDS011;10997;52.242;8.168;2023-02-24T06:12:02;12.82;;;2.42;;
21671;SDS011;10997;52.242;8.168;2023-02-24T06:17:03;8.85;;;2.10;;
21671;SDS011;10997;52.242;8.168;2023-02-24T06:22:03;16.05;;;2.80;;
21671;SDS011;10997;52.242;8.168;2023-02-24T06:27:10;12.90;;;2.67;;
21671;SDS011;10997;52.242;8.168;2023-02-24T06:32:20;14.75;;;2.50;;
21671;SDS011;10997;52.242;8.168;2023-02-24T06:37:22;14.00;;;2.47;;
21671;SDS011;10997;52.242;8.168;2023-02-24T06:42:23;10.45;;;2.53;;
21671;SDS011;10997;52.242;8.168;2023-02-24T06:47:23;12.93;;;2.00;;
21671;SDS011;10997;52.242;8.168;2023-02-24T06:52:25;16.27;;;2.72;;
21671;SDS011;10997;52.242;8.168;2023-02-24T06:57:26;13.18;;;2.13;;
21671;SDS011;10997;52.242;8.168;2023-02-24T07:02:27;9.57;;;2.05;;
21671;SDS011;10997;52.242;8.168;2023-02-24T07:07:38;10.88;;;2.03;;
21671;SDS011;10997;52.242;8.168;2023-02-24T07:12:44;11.35;;;2.30;;
21671;SDS011;10997;52.242;8.168;2023-02-24T07:17:45;12.70;;;2.28;;
21671;SDS011;10997;52.242;8.168;2023-02-24T07:22:46;12.07;;;2.22;;
21671;SDS011;10997;52.242;8.168;2023-02-24T07:27:46;12.82;;;2.50;;
21671;SDS011;10997;52.242;8.168;2023-02-24T07:32:47;15.95;;;2.75;;
21671;SDS011;10997;52.242;8.168;2023-02-24T07:37:48;12.48;;;2.70;;
21671;SDS011;10997;52.242;8.168;2023-02-24T07:42:49;9.93;;;2.30;;
21671;SDS011;10997;52.242;8.168;2023-02-24T07:47:52;16.58;;;2.38;;
21671;SDS011;10997;52.242;8.168;2023-02-24T07:52:53;15.98;;;2.45;;
21671;SDS011;10997;52.242;8.168;2023-02-24T07:57:54;14.75;;;2.63;;
21671;SDS011;10997;52.242;8.168;2023-02-24T08:02:56;11.95;;;1.90;;
21671;SDS011;10997;52.242;8.168;2023-02-24T08:07:59;14.88;;;2.55;;
21671;SDS011;10997;52.242;8.168;2023-02-24T08:13:00;11.60;;;2.47;;
21671;SDS011;10997;52.242;8.168;2023-02-24T08:18:02;12.52;;;2.25;;
21671;SDS011;10997;52.242;8.168;2023-02-24T08:23:03;9.55;;;2.70;;
21671;SDS011;10997;52.242;8.168;2023-02-24T08:28:07;14.20;;;2.67;;
21671;SDS011;10997;52.242;8.168;2023-02-24T08:33:11;8.48;;;2.33;;
21671;SDS011;10997;52.242;8.168;2023-02-24T08:38:17;10.75;;;2.42;;
21671;SDS011;10997;52.242;8.168;2023-02-24T08:43:21;12.23;;;3.03;;
21671;SDS011;10997;52.242;8.168;2023-02-24T08:48:26;15.33;;;3.00;;
21671;SDS011;10997;52.242;8.168;2023-02-24T08:53:36;12.43;;;2.67;;
21671;SDS011;10997;52.242;8.168;2023-02-24T08:58:44;15.40;;;3.20;;
21671;SDS011;10997;52.242;8.168;2023-02-24T09:03:49;15.07;;;3.28;;
21671;SDS011;10997;52.242;8.168;2023-02-24T09:08:55;12.85;;;3.63;;
21671;SDS011;10997;52.242;8.168;2023-02-24T09:14:17;12.60;;;3.45;;
21671;SDS011;10997;52.242;8.168;2023-02-24T09:19:19;15.88;;;3.53;;
21671;SDS011;10997;52.242;8.168;2023-02-24T09:24:39;12.90;;;3.85;;
21671;SDS011;10997;52.242;8.168;2023-02-24T09:29:40;14.43;;;4.22;;
21671;SDS011;10997;52.242;8.168;2023-02-24T09:34:48;8.95;;;3.42;;
21671;SDS011;10997;52.242;8.168;2023-02-24T09:39:49;13.15;;;4.55;;
21671;SDS011;10997;52.242;8.168;2023-02-24T09:44:58;11.02;;;3.83;;
21671;SDS011;10997;52.242;8.168;2023-02-24T10:00:29;13.43;;;4.63;;
21671;SDS011;10997;52.242;8.168;2023-02-24T10:05:38;13.55;;;4.53;;
21671;SDS011;10997;52.242;8.168;2023-02-24T10:10:47;16.85;;;5.32;;
21671;SDS011;10997;52.242;8.168;2023-02-24T10:16:10;11.35;;;4.68;;
21671;SDS011;10997;52.242;8.168;2023-02-24T10:26:40;15.27;;;4.53;;
21671;SDS011;10997;52.242;8.168;2023-02-24T10:31:48;16.50;;;4.72;;
21671;SDS011;10997;52.242;8.168;2023-02-24T10:37:01;9.90;;;4.70;;
21671;SDS011;10997;52.242;8.168;2023-02-24T10:42:10;10.15;;;4.75;;
21671;SDS011;10997;52.242;8.168;2023-02-24T10:47:24;13.50;;;6.32;;
21671;SDS011;10997;52.242;8.168;2023-02-24T10:57:43;7.97;;;5.32;;
21671;SDS011;10997;52.242;8.168;2023-02-24T11:02:54;9.68;;;4.85;;
21671;SDS011;10997;52.242;8.168;2023-02-24T11:08:16;8.55;;;5.40;;
21671;SDS011;10997;52.242;8.168;2023-02-24T11:13:35;10.70;;;5.30;;
21671;SDS011;10997;52.242;8.168;2023-02-24T11:18:55;10.48;;;5.85;;
21671;SDS011;10997;52.242;8.168;2023-02-24T11:23:57;10.23;;;6.35;;
21671;SDS011;10997;52.242;8.168;2023-02-24T11:39:54;6.50;;;5.72;;
21671;SDS011;10997;52.242;8.168;2023-02-24T11:44:58;9.63;;;6.60;;
21671;SDS011;10997;52.242;8.168;2023-02-24T11:50:31;11.55;;;6.65;;
21671;SDS011;10997;52.242;8.168;2023-02-24T11:55:43;9.90;;;6.50;;
21671;SDS011;10997;52.242;8.168;2023-02-24T12:00:50;10.90;;;6.43;;
21671;SDS011;10997;52.242;8.168;2023-02-24T12:06:13;10.88;;;6.45;;
21671;SDS011;10997;52.242;8.168;2023-02-24T12:12:03;10.75;;;7.10;;
21671;SDS011;10997;52.242;8.168;2023-02-24T12:16:59;9.68;;;6.30;;
21671;SDS011;10997;52.242;8.168;2023-02-24T12:22:15;9.05;;;6.70;;
21671;SDS011;10997;52.242;8.168;2023-02-24T12:27:33;8.05;;;6.35;;
21671;SDS011;10997;52.242;8.168;2023-02-24T12:43:35;11.27;;;8.95;;
21671;SDS011;10997;52.242;8.168;2023-02-24T12:49:03;15.27;;;10.85;;
21671;SDS011;10997;52.242;8.168;2023-02-24T12:54:24;8.90;;;6.53;;
21671;SDS011;10997;52.242;8.168;2023-02-24T12:59:56;14.30;;;11.13;;
21671;SDS011;10997;52.242;8.168;2023-02-24T13:06:12;16.40;;;11.90;;
21671;SDS011;10997;52.242;8.168;2023-02-24T13:11:07;26.00;;;19.57;;
21671;SDS011;10997;52.242;8.168;2023-02-24T13:16:12;27.05;;;19.55;;
21671;SDS011;10997;52.242;8.168;2023-02-24T13:26:20;29.35;;;19.27;;
21671;SDS011;10997;52.242;8.168;2023-02-24T13:36:58;32.33;;;19.30;;
21671;SDS011;10997;52.242;8.168;2023-02-24T13:42:21;23.02;;;14.93;;
21671;SDS011;10997;52.242;8.168;2023-02-24T13:58:05;24.02;;;14.65;;
21671;SDS011;10997;52.242;8.168;2023-02-24T14:03:18;30.33;;;16.23;;
21671;SDS011;10997;52.242;8.168;2023-02-24T14:13:30;25.73;;;14.05;;
21671;SDS011;10997;52.242;8.168;2023-02-24T14:18:33;23.25;;;15.20;;
21671;SDS011;10997;52.242;8.168;2023-02-24T14:23:35;31.98;;;17.33;;
21671;SDS011;10997;52.242;8.168;2023-02-24T14:28:37;23.42;;;14.15;;
21671;SDS011;10997;52.242;8.168;2023-02-24T14:33:39;26.67;;;12.63;;
21671;SDS011;10997;52.242;8.168;2023-02-24T14:38:42;24.60;;;13.80;;
21671;SDS011;10997;52.242;8.168;2023-02-24T14:43:43;22.20;;;13.70;;
21671;SDS011;10997;52.242;8.168;2023-02-24T14:48:44;29.48;;;18.98;;
21671;SDS011;10997;52.242;8.168;2023-02-24T14:53:47;28.95;;;16.25;;
21671;SDS011;10997;52.242;8.168;2023-02-24T15:03:59;18.48;;;8.57;;
21671;SDS011;10997;52.242;8.168;2023-02-24T15:09:14;10.55;;;5.28;;
21671;SDS011;10997;52.242;8.168;2023-02-24T15:14:20;8.52;;;4.15;;
21671;SDS011;10997;52.242;8.168;2023-02-24T15:19:25;7.47;;;3.92;;
21671;SDS011;10997;52.242;8.168;2023-02-24T15:24:27;10.18;;;5.57;;
21671;SDS011;10997;52.242;8.168;2023-02-24T15:29:33;10.23;;;5.40;;
21671;SDS011;10997;52.242;8.168;2023-02-24T15:34:34;13.45;;;5.82;;
21671;SDS011;10997;52.242;8.168;2023-02-24T15:39:36;12.15;;;6.57;;
21671;SDS011;10997;52.242;8.168;2023-02-24T15:44:50;12.65;;;6.40;;
21671;SDS011;10997;52.242;8.168;2023-02-24T15:49:52;20.55;;;6.85;;
21671;SDS011;10997;52.242;8.168;2023-02-24T15:54:53;15.88;;;6.95;;
21671;SDS011;10997;52.242;8.168;2023-02-24T15:59:55;16.17;;;7.05;;
21671;SDS011;10997;52.242;8.168;2023-02-24T16:04:56;19.50;;;7.15;;
21671;SDS011;10997;52.242;8.168;2023-02-24T16:09:56;20.40;;;8.15;;
21671;SDS011;10997;52.242;8.168;2023-02-24T16:14:59;20.58;;;7.93;;
21671;SDS011;10997;52.242;8.168;2023-02-24T16:20:01;14.57;;;7.25;;
21671;SDS011;10997;52.242;8.168;2023-02-24T16:25:07;19.38;;;8.68;;
21671;SDS011;10997;52.242;8.168;2023-02-24T16:30:15;21.75;;;7.50;;
21671;SDS011;10997;52.242;8.168;2023-02-24T16:35:17;19.25;;;6.75;;
21671;SDS011;10997;52.242;8.168;2023-02-24T16:40:25;18.33;;;4.70;;
21671;SDS011;10997;52.242;8.168;2023-02-24T16:45:29;18.63;;;4.68;;
21671;SDS011;10997;52.242;8.168;2023-02-24T16:50:35;12.18;;;3.33;;
21671;SDS011;10997;52.242;8.168;2023-02-24T16:55:38;13.75;;;3.50;;
21671;SDS011;10997;52.242;8.168;2023-02-24T17:00:39;10.52;;;2.70;;
21671;SDS011;10997;52.242;8.168;2023-02-24T17:05:40;18.77;;;8.50;;
21671;SDS011;10997;52.242;8.168;2023-02-24T17:10:41;12.60;;;2.20;;
21671;SDS011;10997;52.242;8.168;2023-02-24T17:15:43;6.45;;;1.70;;
21671;SDS011;10997;52.242;8.168;2023-02-24T17:20:44;9.65;;;2.08;;
21671;SDS011;10997;52.242;8.168;2023-02-24T17:25:45;7.13;;;1.88;;
21671;SDS011;10997;52.242;8.168;2023-02-24T17:30:48;8.00;;;2.80;;
21671;SDS011;10997;52.242;8.168;2023-02-24T17:35:48;7.88;;;2.03;;
21671;SDS011;10997;52.242;8.168;2023-02-24T17:40:49;9.55;;;2.17;;
21671;SDS011;10997;52.242;8.168;2023-02-24T17:45:50;16.75;;;3.22;;
21671;SDS011;10997;52.242;8.168;2023-02-24T17:50:51;12.20;;;3.60;;
21671;SDS011;10997;52.242;8.168;2023-02-24T17:56:02;9.63;;;2.63;;
21671;SDS011;10997;52.242;8.168;2023-02-24T18:01:04;9.30;;;2.47;;
21671;SDS011;10997;52.242;8.168;2023-02-24T18:06:09;16.25;;;3.63;;
21671;SDS011;10997;52.242;8.168;2023-02-24T18:11:13;10.40;;;2.03;;
21671;SDS011;10997;52.242;8.168;2023-02-24T18:16:15;6.90;;;2.05;;
21671;SDS011;10997;52.242;8.168;2023-02-24T18:21:16;5.15;;;1.85;;
21671;SDS011;10997;52.242;8.168;2023-02-24T18:26:17;9.45;;;2.28;;
21671;SDS011;10997;52.242;8.168;2023-02-24T18:31:19;13.60;;;3.10;;
21671;SDS011;10997;52.242;8.168;2023-02-24T18:36:21;12.40;;;3.10;;
21671;SDS011;10997;52.242;8.168;2023-02-24T18:41:22;12.75;;;2.67;;
21671;SDS011;10997;52.242;8.168;2023-02-24T18:46:24;13.40;;;5.10;;
21671;SDS011;10997;52.242;8.168;2023-02-24T18:51:25;12.65;;;3.35;;
21671;SDS011;10997;52.242;8.168;2023-02-24T18:56:28;13.52;;;4.75;;
21671;SDS011;10997;52.242;8.168;2023-02-24T19:01:31;11.93;;;2.88;;
21671;SDS011;10997;52.242;8.168;2023-02-24T19:06:36;12.55;;;2.47;;
21671;SDS011;10997;52.242;8.168;2023-02-24T19:11:38;12.10;;;2.38;;
21671;SDS011;10997;52.242;8.168;2023-02-24T19:16:39;15.73;;;2.97;;
21671;SDS011;10997;52.242;8.168;2023-02-24T19:21:40;15.38;;;2.72;;
21671;SDS011;10997;52.242;8.168;2023-02-24T19:26:44;27.02;;;4.07;;
21671;SDS011;10997;52.242;8.168;2023-02-24T19:31:46;20.83;;;3.85;;
21671;SDS011;10997;52.242;8.168;2023-02-24T19:41:53;25.35;;;4.47;;
21671;SDS011;10997;52.242;8.168;2023-02-24T19:46:56;23.27;;;4.20;;
21671;SDS011;10997;52.242;8.168;2023-02-24T19:51:57;17.92;;;3.20;;
21671;SDS011;10997;52.242;8.168;2023-02-24T19:57:00;23.02;;;3.67;;
21671;SDS011;10997;52.242;8.168;2023-02-24T20:02:01;20.73;;;3.80;;
21671;SDS011;10997;52.242;8.168;2023-02-24T20:07:01;22.58;;;4.05;;
21671;SDS011;10997;52.242;8.168;2023-02-24T20:12:02;23.98;;;4.13;;
21671;SDS011;10997;52.242;8.168;2023-02-24T20:17:02;32.20;;;4.30;;
21671;SDS011;10997;52.242;8.168;2023-02-24T20:22:03;22.17;;;3.90;;
21671;SDS011;10997;52.242;8.168;2023-02-24T20:27:07;29.25;;;4.38;;
21671;SDS011;10997;52.242;8.168;2023-02-24T20:32:07;29.48;;;4.40;;
21671;SDS011;10997;52.242;8.168;2023-02-24T20:37:08;22.85;;;3.78;;
21671;SDS011;10997;52.242;8.168;2023-02-24T20:42:09;25.55;;;4.20;;
21671;SDS011;10997;52.242;8.168;2023-02-24T20:47:11;25.77;;;4.65;;
21671;SDS011;10997;52.242;8.168;2023-02-24T20:52:12;28.20;;;4.25;;
21671;SDS011;10997;52.242;8.168;2023-02-24T20:57:13;23.95;;;4.50;;
21671;SDS011;10997;52.242;8.168;2023-02-24T21:02:13;29.83;;;4.63;;
21671;SDS011;10997;52.242;8.168;2023-02-24T21:07:14;30.70;;;4.18;;
21671;SDS011;10997;52.242;8.168;2023-02-24T21:12:14;26.35;;;4.10;;
21671;SDS011;10997;52.242;8.168;2023-02-24T21:17:15;22.50;;;4.25;;
21671;SDS011;10997;52.242;8.168;2023-02-24T21:22:15;26.55;;;4.22;;
21671;SDS011;10997;52.242;8.168;2023-02-24T21:27:16;25.67;;;4.22;;
21671;SDS011;10997;52.242;8.168;2023-02-24T21:32:17;25.98;;;4.60;;
21671;SDS011;10997;52.242;8.168;2023-02-24T21:37:18;33.80;;;4.88;;
21671;SDS011;10997;52.242;8.168;2023-02-24T21:42:18;32.88;;;4.97;;
21671;SDS011;10997;52.242;8.168;2023-02-24T21:47:21;23.13;;;3.47;;
21671;SDS011;10997;52.242;8.168;2023-02-24T21:52:21;23.95;;;4.07;;
21671;SDS011;10997;52.242;8.168;2023-02-24T21:57:22;24.48;;;4.35;;
21671;SDS011;10997;52.242;8.168;2023-02-24T22:02:22;27.33;;;4.20;;
21671;SDS011;10997;52.242;8.168;2023-02-24T22:07:23;25.55;;;4.00;;
21671;SDS011;10997;52.242;8.168;2023-02-24T22:12:23;26.38;;;4.47;;
21671;SDS011;10997;52.242;8.168;2023-02-24T22:17:24;26.10;;;3.85;;
21671;SDS011;10997;52.242;8.168;2023-02-24T22:22:25;21.10;;;3.95;;
21671;SDS011;10997;52.242;8.168;2023-02-24T22:27:27;22.95;;;3.78;;
21671;SDS011;10997;52.242;8.168;2023-02-24T22:32:28;23.73;;;3.50;;
21671;SDS011;10997;52.242;8.168;2023-02-24T22:37:28;28.17;;;3.33;;
21671;SDS011;10997;52.242;8.168;2023-02-24T22:42:29;30.52;;;4.63;;
21671;SDS011;10997;52.242;8.168;2023-02-24T22:47:30;26.38;;;3.75;;
21671;SDS011;10997;52.242;8.168;2023-02-24T22:52:30;22.80;;;4.18;;
21671;SDS011;10997;52.242;8.168;2023-02-24T22:57:31;28.45;;;4.25;;
21671;SDS011;10997;52.242;8.168;2023-02-24T23:02:33;27.45;;;4.68;;
21671;SDS011;10997;52.242;8.168;2023-02-24T23:07:34;32.50;;;4.45;;
21671;SDS011;10997;52.242;8.168;2023-02-24T23:12:36;24.77;;;3.90;;
21671;SDS011;10997;52.242;8.168;2023-02-24T23:17:36;30.52;;;3.90;;
21671;SDS011;10997;52.242;8.168;2023-02-24T23:22:38;27.63;;;4.20;;
21671;SDS011;10997;52.242;8.168;2023-02-24T23:27:39;25.33;;;3.40;;
21671;SDS011;10997;52.242;8.168;2023-02-24T23:32:40;16.25;;;3.60;;
21671;SDS011;10997;52.242;8.168;2023-02-24T23:37:42;23.35;;;3.67;;
21671;SDS011;10997;52.242;8.168;2023-02-24T23:42:43;22.95;;;3.90;;
21671;SDS011;10997;52.242;8.168;2023-02-24T23:47:45;25.17;;;3.42;;
21671;SDS011;10997;52.242;8.168;2023-02-24T23:52:45;26.00;;;4.03;;
21671;SDS011;10997;52.242;8.168;2023-02-24T23:57:46;23.85;;;3.60;;
